createdAt,value
2022-10-20T00:01:21.889Z,15.88
2022-10-20T00:03:49.145Z,16.42
2022-10-20T00:06:17.154Z,19.13
2022-10-20T00:08:44.624Z,15.77
2022-10-20T00:11:12.239Z,14.60
2022-10-20T00:13:39.490Z,17.08
2022-10-20T00:16:06.821Z,18.33
2022-10-20T00:18:33.942Z,18.10
2022-10-20T00:21:01.035Z,15.70
2022-10-20T00:23:28.122Z,17.35
2022-10-20T00:26:12.743Z,17.27
2022-10-20T00:28:39.854Z,15.90
2022-10-20T00:31:07.221Z,15.38
2022-10-20T00:33:34.572Z,16.30
2022-10-20T00:36:02.173Z,18.73
2022-10-20T00:38:29.315Z,16.95
2022-10-20T00:40:56.485Z,17.75
2022-10-20T00:43:23.697Z,19.90
2022-10-20T00:45:51.354Z,19.03
2022-10-20T00:48:19.777Z,18.75
2022-10-20T00:50:50.942Z,18.27
2022-10-20T00:53:18.060Z,17.70
2022-10-20T00:55:46.743Z,19.67
2022-10-20T00:58:13.882Z,18.55
2022-10-20T01:00:41.193Z,18.95
2022-10-20T01:03:08.686Z,20.63
2022-10-20T01:05:35.827Z,23.70
2022-10-20T01:08:02.945Z,21.88
2022-10-20T01:10:30.799Z,23.50
2022-10-20T01:12:58.006Z,20.47
2022-10-20T01:15:35.322Z,20.42
2022-10-20T01:18:07.847Z,21.70
2022-10-20T01:20:34.994Z,19.57
2022-10-20T01:23:04.978Z,20.83
2022-10-20T01:25:43.975Z,21.33
2022-10-20T01:28:13.180Z,22.27
2022-10-20T01:30:48.700Z,20.40
2022-10-20T01:33:42.195Z,19.60
2022-10-20T01:36:19.712Z,18.90
2022-10-20T01:38:51.257Z,19.02
2022-10-20T01:41:19.723Z,20.27
2022-10-20T01:43:46.855Z,22.70
2022-10-20T01:46:13.970Z,22.98
2022-10-20T01:48:41.073Z,22.23
2022-10-20T01:51:08.488Z,22.38
2022-10-20T01:53:35.619Z,24.80
2022-10-20T01:56:02.869Z,23.13
2022-10-20T01:58:29.934Z,23.42
2022-10-20T02:00:58.154Z,21.45
2022-10-20T02:03:25.292Z,21.77
2022-10-20T02:05:58.210Z,21.50
2022-10-20T02:08:43.570Z,21.07
2022-10-20T02:11:13.090Z,20.08
2022-10-20T02:13:40.152Z,21.27
2022-10-20T02:16:12.463Z,20.65
2022-10-20T02:19:01.462Z,20.67
2022-10-20T02:21:28.607Z,18.93
2022-10-20T02:23:55.757Z,19.43
2022-10-20T02:26:23.087Z,19.10
2022-10-20T02:28:54.374Z,17.40
2022-10-20T02:31:21.514Z,20.70
2022-10-20T02:33:48.603Z,20.80
2022-10-20T02:36:17.651Z,20.90
2022-10-20T02:38:44.763Z,22.43
2022-10-20T02:41:11.851Z,20.57
2022-10-20T02:43:39.019Z,24.10
2022-10-20T02:46:06.240Z,26.37
2022-10-20T02:48:33.371Z,27.53
2022-10-20T02:51:00.529Z,30.67
2022-10-20T02:53:27.610Z,31.67
2022-10-20T02:55:54.755Z,27.87
2022-10-20T02:58:21.866Z,26.67
2022-10-20T03:00:50.493Z,27.87
2022-10-20T03:03:18.441Z,26.20
2022-10-20T03:05:46.974Z,27.37
2022-10-20T03:08:14.224Z,26.27
2022-10-20T03:10:41.663Z,27.07
2022-10-20T03:13:08.877Z,28.63
2022-10-20T03:15:35.996Z,23.60
2022-10-20T03:18:03.088Z,22.73
2022-10-20T03:20:30.212Z,21.17
2022-10-20T03:22:57.297Z,23.63
2022-10-20T03:25:24.379Z,22.37
2022-10-20T03:27:51.533Z,22.20
2022-10-20T03:30:18.652Z,21.50
2022-10-20T03:32:45.734Z,20.83
2022-10-20T03:35:12.870Z,20.23
2022-10-20T03:37:39.958Z,20.10
2022-10-20T03:40:07.397Z,19.83
2022-10-20T03:42:34.907Z,21.20
2022-10-20T03:45:02.410Z,19.57
2022-10-20T03:47:29.505Z,21.77
2022-10-20T03:49:56.647Z,19.00
2022-10-20T03:52:23.742Z,20.27
2022-10-20T03:54:50.901Z,18.67
2022-10-20T03:57:18.032Z,19.27
2022-10-20T03:59:45.146Z,18.90
2022-10-20T04:02:44.833Z,21.63
2022-10-20T04:05:15.207Z,19.27
2022-10-20T04:07:42.307Z,19.27
2022-10-20T04:10:09.686Z,18.40
2022-10-20T04:12:37.103Z,18.87
2022-10-20T04:15:04.963Z,19.17
2022-10-20T04:17:32.152Z,20.50
2022-10-20T04:19:59.307Z,19.23
2022-10-20T04:22:26.394Z,19.07
2022-10-20T04:24:53.502Z,16.40
2022-10-20T04:27:20.605Z,18.30
2022-10-20T04:29:47.905Z,18.03
2022-10-20T04:32:15.061Z,17.67
2022-10-20T04:34:42.166Z,18.70
2022-10-20T04:37:09.255Z,19.40
2022-10-20T04:39:36.369Z,19.50
2022-10-20T04:42:03.458Z,19.90
2022-10-20T04:44:30.557Z,20.73
2022-10-20T04:46:57.693Z,23.03
2022-10-20T04:49:24.833Z,21.03
2022-10-20T04:51:51.935Z,19.63
2022-10-20T04:54:19.083Z,19.33
2022-10-20T04:56:46.165Z,18.90
2022-10-20T04:59:13.800Z,19.00
2022-10-20T05:01:41.190Z,17.33
2022-10-20T05:04:08.330Z,19.03
2022-10-20T05:06:35.466Z,18.80
2022-10-20T05:09:03.356Z,20.47
2022-10-20T05:11:30.725Z,20.27
2022-10-20T05:13:57.883Z,19.63
2022-10-20T05:16:25.029Z,20.93
2022-10-20T05:18:52.324Z,19.60
2022-10-20T05:21:20.214Z,20.00
2022-10-20T05:23:47.436Z,20.30
2022-10-20T05:26:15.610Z,20.47
2022-10-20T05:28:46.379Z,20.17
2022-10-20T05:31:13.528Z,20.07
2022-10-20T05:33:40.714Z,19.97
2022-10-20T05:36:10.946Z,21.20
2022-10-20T05:38:38.132Z,24.97
2022-10-20T05:41:08.081Z,31.73
2022-10-20T05:43:35.460Z,32.20
2022-10-20T05:46:02.807Z,35.17
2022-10-20T05:48:29.898Z,29.20
2022-10-20T05:50:56.981Z,31.87
2022-10-20T05:53:24.167Z,41.43
2022-10-20T05:55:51.294Z,43.80
2022-10-20T05:58:22.232Z,42.00
2022-10-20T06:00:52.924Z,33.53
2022-10-20T06:03:21.259Z,33.03
2022-10-20T06:05:54.795Z,41.23
2022-10-20T06:08:21.879Z,37.83
2022-10-20T06:10:48.968Z,48.67
2022-10-20T06:13:16.100Z,48.27
2022-10-20T06:15:43.214Z,49.40
2022-10-20T06:18:10.324Z,35.30
2022-10-20T06:20:37.451Z,36.33
2022-10-20T06:23:04.543Z,37.03
2022-10-20T06:25:31.776Z,36.87
2022-10-20T06:27:58.896Z,39.77
2022-10-20T06:30:25.984Z,42.47
2022-10-20T06:32:56.201Z,41.23
2022-10-20T06:35:23.347Z,41.27
2022-10-20T06:37:50.437Z,37.37
2022-10-20T06:40:17.627Z,36.63
2022-10-20T06:42:44.852Z,29.37
2022-10-20T06:45:14.368Z,28.50
2022-10-20T06:47:44.130Z,25.73
2022-10-20T06:50:11.293Z,19.00
2022-10-20T06:52:38.482Z,17.08
2022-10-20T06:55:06.075Z,20.97
2022-10-20T06:57:33.311Z,23.17
2022-10-20T07:00:00.403Z,29.20
2022-10-20T07:02:27.484Z,27.20
2022-10-20T07:04:54.643Z,23.93
2022-10-20T07:07:21.730Z,19.35
2022-10-20T07:09:48.811Z,23.40
2022-10-20T07:12:15.923Z,20.58
2022-10-20T07:14:43.019Z,21.40
2022-10-20T07:17:10.148Z,21.55
2022-10-20T07:19:37.277Z,19.52
2022-10-20T07:22:04.375Z,25.17
2022-10-20T07:24:31.493Z,20.10
2022-10-20T07:26:58.635Z,17.37
2022-10-20T07:29:25.762Z,19.33
2022-10-20T07:31:52.857Z,16.53
2022-10-20T07:34:26.102Z,18.77
2022-10-20T07:36:53.765Z,17.48
2022-10-20T07:39:20.947Z,16.00
2022-10-20T07:41:48.674Z,14.52
2022-10-20T07:44:16.246Z,13.50
2022-10-20T07:46:43.431Z,12.63
2022-10-20T07:49:39.274Z,14.35
2022-10-20T07:51:57.698Z,15.05
2022-10-20T07:54:24.853Z,14.35
2022-10-20T07:56:52.037Z,13.90
2022-10-20T07:59:19.218Z,13.45
2022-10-20T08:01:46.507Z,15.18
2022-10-20T08:04:13.749Z,12.73
2022-10-20T08:06:40.883Z,13.43
2022-10-20T08:09:08.236Z,11.37
2022-10-20T08:11:35.660Z,12.65
2022-10-20T08:14:02.838Z,14.32
2022-10-20T08:16:42.317Z,17.30
2022-10-20T08:19:30.659Z,17.00
2022-10-20T08:21:57.842Z,14.20
2022-10-20T08:24:24.925Z,14.05
2022-10-20T08:26:52.043Z,16.67
2022-10-20T08:29:19.246Z,17.65
2022-10-20T08:31:46.334Z,15.85
2022-10-20T08:34:13.516Z,12.95
2022-10-20T08:36:40.688Z,15.18
2022-10-20T08:39:07.767Z,13.40
2022-10-20T08:41:55.755Z,12.38
2022-10-20T08:44:31.355Z,13.43
2022-10-20T08:46:58.842Z,12.95
2022-10-20T08:49:26.713Z,12.32
2022-10-20T08:51:53.868Z,14.65
2022-10-20T08:54:21.038Z,14.43
2022-10-20T08:56:48.231Z,15.55
2022-10-20T08:59:24.601Z,15.35
2022-10-20T09:01:51.758Z,16.08
2022-10-20T09:04:23.249Z,15.30
2022-10-20T09:06:55.522Z,14.45
2022-10-20T09:09:22.651Z,13.73
2022-10-20T09:11:49.822Z,13.35
2022-10-20T09:14:17.063Z,14.88
2022-10-20T09:16:59.308Z,11.18
2022-10-20T09:19:27.629Z,10.07
2022-10-20T09:21:56.218Z,8.52
2022-10-20T09:24:23.573Z,9.27
2022-10-20T09:26:59.971Z,9.13
2022-10-20T09:29:37.495Z,7.38
2022-10-20T09:32:22.434Z,7.60
2022-10-20T09:34:51.721Z,6.57
2022-10-20T09:37:19.327Z,6.38
2022-10-20T09:39:57.036Z,6.03
2022-10-20T09:42:30.932Z,5.53
2022-10-20T09:45:01.995Z,6.80
2022-10-20T09:47:29.120Z,4.90
2022-10-20T09:50:01.250Z,4.30
2022-10-20T09:52:34.982Z,3.80
2022-10-20T09:55:03.285Z,4.03
2022-10-20T09:57:30.358Z,7.05
2022-10-20T10:00:04.517Z,7.60
2022-10-20T10:02:40.334Z,3.95
2022-10-20T10:05:19.060Z,3.60
2022-10-20T10:07:46.257Z,3.03
2022-10-20T10:10:19.369Z,3.70
2022-10-20T10:12:53.073Z,3.70
2022-10-20T10:15:23.031Z,2.88
2022-10-20T10:17:50.265Z,2.80
2022-10-20T10:20:17.384Z,3.08
2022-10-20T10:22:44.543Z,2.70
2022-10-20T10:25:20.026Z,2.95
2022-10-20T10:28:09.034Z,2.88
2022-10-20T10:30:37.258Z,3.17
2022-10-20T10:33:17.861Z,2.70
2022-10-20T10:35:44.987Z,2.50
2022-10-20T10:38:13.185Z,2.10
2022-10-20T10:40:40.293Z,1.83
2022-10-20T10:43:29.849Z,2.22
2022-10-20T10:46:09.794Z,2.10
2022-10-20T10:48:36.946Z,2.40
2022-10-20T10:51:05.681Z,2.03
2022-10-20T10:53:51.747Z,2.20
2022-10-20T10:56:37.618Z,2.42
2022-10-20T10:59:12.351Z,2.00
2022-10-20T11:01:39.427Z,2.03
2022-10-20T11:04:25.208Z,2.42
2022-10-20T11:06:57.961Z,2.38
2022-10-20T11:09:28.751Z,2.33
2022-10-20T11:11:55.827Z,1.90
2022-10-20T11:14:41.902Z,2.03
2022-10-20T11:17:11.994Z,2.28
2022-10-20T11:20:00.662Z,2.17
2022-10-20T11:22:35.827Z,2.30
2022-10-20T11:25:12.188Z,2.42
2022-10-20T11:27:39.514Z,2.78
2022-10-20T11:30:16.613Z,2.10
2022-10-20T11:32:46.548Z,1.90
2022-10-20T11:35:31.674Z,1.92
2022-10-20T11:38:07.842Z,2.10
2022-10-20T11:40:55.211Z,2.20
2022-10-20T11:43:37.670Z,2.25
2022-10-20T11:46:05.661Z,1.77
2022-10-20T11:48:35.863Z,2.10
2022-10-20T11:51:21.508Z,2.00
2022-10-20T11:53:57.708Z,1.85
2022-10-20T11:56:43.379Z,2.05
2022-10-20T11:59:29.291Z,1.80
2022-10-20T12:02:15.237Z,2.30
2022-10-20T12:05:00.535Z,2.03
2022-10-20T12:07:33.624Z,1.75
2022-10-20T12:10:06.593Z,2.40
2022-10-20T12:12:34.133Z,2.15
2022-10-20T12:15:01.889Z,1.80
2022-10-20T12:17:35.836Z,2.00
2022-10-20T12:20:21.492Z,2.08
2022-10-20T12:22:54.516Z,2.08
2022-10-20T12:25:25.023Z,2.00
2022-10-20T12:28:10.975Z,2.05
2022-10-20T12:30:38.109Z,2.53
2022-10-20T12:33:18.451Z,2.17
2022-10-20T12:35:58.656Z,2.05
2022-10-20T12:38:25.910Z,1.98
2022-10-20T12:40:57.974Z,2.55
2022-10-20T12:43:26.319Z,2.53
2022-10-20T12:45:53.479Z,1.70
2022-10-20T12:48:21.542Z,2.10
2022-10-20T12:50:50.182Z,2.30
2022-10-20T12:53:27.056Z,2.25
2022-10-20T12:55:58.285Z,2.40
2022-10-20T12:58:27.395Z,3.22
2022-10-20T13:00:54.599Z,2.80
2022-10-20T13:03:37.207Z,1.80
2022-10-20T13:06:24.443Z,2.40
2022-10-20T13:09:03.991Z,2.03
2022-10-20T13:11:43.274Z,3.33
2022-10-20T13:14:16.119Z,3.25
2022-10-20T13:17:03.658Z,14.80
2022-10-20T13:19:44.397Z,6.97
2022-10-20T13:22:30.254Z,3.17
2022-10-20T13:24:58.185Z,2.40
2022-10-20T13:27:25.402Z,6.32
2022-10-20T13:29:52.572Z,2.50
2022-10-20T13:32:19.729Z,5.60
2022-10-20T13:34:52.795Z,2.22
2022-10-20T13:37:35.229Z,7.90
2022-10-20T13:40:23.756Z,3.30
2022-10-20T13:42:57.609Z,3.38
2022-10-20T13:45:30.639Z,4.13
2022-10-20T13:48:03.630Z,6.40
2022-10-20T13:50:31.311Z,2.20
2022-10-20T13:52:59.394Z,2.60
2022-10-20T13:55:27.345Z,2.30
2022-10-20T13:57:58.301Z,2.60
2022-10-20T14:00:26.723Z,2.00
2022-10-20T14:02:58.331Z,2.60
2022-10-20T14:05:25.785Z,2.42
2022-10-20T14:07:53.259Z,2.40
2022-10-20T14:10:24.941Z,3.03
2022-10-20T14:12:52.496Z,3.03
2022-10-20T14:15:28.379Z,4.13
2022-10-20T14:17:56.767Z,3.67
2022-10-20T14:20:24.215Z,3.03
2022-10-20T14:22:53.614Z,2.92
2022-10-20T14:25:21.136Z,3.42
2022-10-20T14:27:48.391Z,2.90
2022-10-20T14:30:16.670Z,3.17
2022-10-20T14:32:44.152Z,2.75
2022-10-20T14:35:18.952Z,2.45
2022-10-20T14:37:47.510Z,2.80
2022-10-20T14:40:26.889Z,2.95
2022-10-20T14:42:54.151Z,3.10
2022-10-20T14:45:22.379Z,3.20
2022-10-20T14:47:49.624Z,3.80
2022-10-20T14:50:20.863Z,3.40
2022-10-20T14:52:52.901Z,3.38
2022-10-20T14:55:34.191Z,3.28
2022-10-20T14:58:01.357Z,3.00
2022-10-20T15:00:37.394Z,3.60
2022-10-20T15:03:06.931Z,3.50
2022-10-20T15:05:39.878Z,4.50
2022-10-20T15:08:21.861Z,4.63
2022-10-20T15:10:49.049Z,4.85
2022-10-20T15:13:26.486Z,4.50
2022-10-20T15:15:55.155Z,4.22
2022-10-20T15:18:23.962Z,3.95
2022-10-20T15:20:51.842Z,6.28
2022-10-20T15:23:19.090Z,7.35
2022-10-20T15:25:46.222Z,7.32
2022-10-20T15:28:33.664Z,16.27
2022-10-20T15:31:01.043Z,23.63
2022-10-20T15:33:28.208Z,28.42
2022-10-20T15:35:55.535Z,28.40
2022-10-20T15:38:22.782Z,38.10
2022-10-20T15:40:49.982Z,27.85
2022-10-20T15:43:17.554Z,24.27
2022-10-20T15:45:54.732Z,23.85
2022-10-20T15:48:23.967Z,25.85
2022-10-20T15:50:51.272Z,25.42
2022-10-20T15:53:18.488Z,26.17
2022-10-20T15:55:45.791Z,22.48
2022-10-20T15:58:13.003Z,22.48
2022-10-20T16:00:40.267Z,23.77
2022-10-20T16:03:07.496Z,28.25
2022-10-20T16:05:34.803Z,22.85
2022-10-20T16:08:01.987Z,25.65
2022-10-20T16:10:29.662Z,30.88
2022-10-20T16:12:57.841Z,26.98
2022-10-20T16:15:28.878Z,23.48
2022-10-20T16:17:58.321Z,27.77
2022-10-20T16:20:25.487Z,40.28
2022-10-20T16:22:52.624Z,29.80
2022-10-20T16:25:19.870Z,35.35
2022-10-20T16:27:47.051Z,28.42
2022-10-20T16:30:14.241Z,39.33
2022-10-20T16:32:41.784Z,41.63
2022-10-20T16:35:09.369Z,46.83
2022-10-20T16:37:36.883Z,57.67
2022-10-20T16:40:04.409Z,62.90
2022-10-20T16:42:32.406Z,54.97
2022-10-20T16:44:59.528Z,69.45
2022-10-20T16:47:26.767Z,59.03
2022-10-20T16:49:55.209Z,55.88
2022-10-20T16:52:22.415Z,65.70
2022-10-20T16:54:49.565Z,72.80
2022-10-20T16:57:16.731Z,66.82
2022-10-20T16:59:49.689Z,91.70
2022-10-20T17:02:17.590Z,82.85
2022-10-20T17:04:48.370Z,91.72
2022-10-20T17:07:15.603Z,86.95
2022-10-20T17:09:42.790Z,86.38
2022-10-20T17:12:09.980Z,68.35
2022-10-20T17:14:37.132Z,75.15
2022-10-20T17:19:49.062Z,57.75
2022-10-20T17:22:16.198Z,60.20
2022-10-20T17:24:43.335Z,48.83
2022-10-20T17:27:10.503Z,50.33
2022-10-20T17:29:37.668Z,59.90
2022-10-20T17:32:04.889Z,53.35
2022-10-20T17:34:32.090Z,51.30
2022-10-20T17:36:59.251Z,50.95
2022-10-20T17:39:27.788Z,56.42
2022-10-20T17:41:54.946Z,58.63
2022-10-20T17:44:22.096Z,68.37
2022-10-20T17:46:49.235Z,67.38
2022-10-20T17:49:16.394Z,68.40
2022-10-20T17:51:44.163Z,75.18
2022-10-20T17:54:11.347Z,67.82
2022-10-20T17:56:40.106Z,76.23
2022-10-20T17:59:08.777Z,75.72
2022-10-20T18:01:37.005Z,75.70
2022-10-20T18:04:08.253Z,76.70
2022-10-20T18:06:35.565Z,75.93
2022-10-20T18:09:04.396Z,79.27
2022-10-20T18:11:32.136Z,80.80
2022-10-20T18:13:59.931Z,91.93
2022-10-20T18:16:27.645Z,86.13
2022-10-20T18:21:25.502Z,91.20
2022-10-20T18:23:56.115Z,90.77
2022-10-20T18:26:23.351Z,82.23
2022-10-20T18:28:50.617Z,78.20
2022-10-20T18:31:24.950Z,75.07
2022-10-20T18:33:54.227Z,70.57
2022-10-20T18:36:21.394Z,69.53
2022-10-20T18:38:48.707Z,68.53
2022-10-20T18:41:17.120Z,66.93
2022-10-20T18:43:47.106Z,65.57
2022-10-20T18:46:14.631Z,70.97
2022-10-20T18:48:41.852Z,65.17
2022-10-20T18:51:09.423Z,94.23
2022-10-20T18:53:36.932Z,84.17
2022-10-20T18:56:04.077Z,76.67
2022-10-20T18:58:31.560Z,65.90
2022-10-20T19:00:59.509Z,62.50
2022-10-20T19:03:30.723Z,64.43
2022-10-20T19:05:58.918Z,66.57
2022-10-20T19:08:26.163Z,109.37
2022-10-20T19:10:53.297Z,78.00
2022-10-20T19:13:20.412Z,85.70
2022-10-20T19:15:47.606Z,115.93
2022-10-20T19:18:15.529Z,81.70
2022-10-20T19:20:42.711Z,80.50
2022-10-20T19:23:09.894Z,74.10
2022-10-20T19:25:37.036Z,70.17
2022-10-20T19:28:04.169Z,69.83
2022-10-20T19:30:34.032Z,68.77
2022-10-20T19:33:01.193Z,71.57
2022-10-20T19:35:28.366Z,68.23
2022-10-20T19:37:55.530Z,67.33
2022-10-20T19:40:26.145Z,62.50
2022-10-20T19:42:55.506Z,65.17
2022-10-20T19:45:22.644Z,66.53
2022-10-20T19:47:49.858Z,67.37
2022-10-20T19:50:17.011Z,68.53
2022-10-20T19:52:44.153Z,68.00
2022-10-20T19:55:11.270Z,68.43
2022-10-20T19:57:38.445Z,67.93
2022-10-20T20:00:05.850Z,66.30
2022-10-20T20:02:33.047Z,68.27
2022-10-20T20:05:00.215Z,68.10
2022-10-20T20:07:27.411Z,72.60
2022-10-20T20:09:54.567Z,78.20
2022-10-20T20:12:21.762Z,78.23
2022-10-20T20:14:48.904Z,67.20
2022-10-20T20:17:16.063Z,67.90
2022-10-20T20:19:43.249Z,65.00
2022-10-20T20:22:10.427Z,61.40
2022-10-20T20:24:38.894Z,59.93
2022-10-20T20:27:06.079Z,58.07
2022-10-20T20:29:33.242Z,52.33
2022-10-20T20:32:00.404Z,48.93
2022-10-20T20:34:27.596Z,52.17
2022-10-20T20:36:54.735Z,46.47
2022-10-20T20:39:21.961Z,50.40
2022-10-20T20:41:49.138Z,48.87
2022-10-20T20:44:16.382Z,47.57
2022-10-20T20:46:43.586Z,49.40
2022-10-20T20:49:10.758Z,46.50
2022-10-20T20:51:37.898Z,62.87
2022-10-20T20:54:05.081Z,69.77
2022-10-20T20:56:32.337Z,69.50
2022-10-20T20:58:59.470Z,68.13
2022-10-20T21:01:27.557Z,57.20
2022-10-20T21:03:58.881Z,59.40
2022-10-20T21:06:33.394Z,55.57
2022-10-20T21:09:01.510Z,53.33
2022-10-20T21:11:28.776Z,52.13
2022-10-20T21:13:56.181Z,50.47
2022-10-20T21:16:25.486Z,48.90
2022-10-20T21:18:53.509Z,48.43
2022-10-20T21:21:21.357Z,45.67
2022-10-20T21:23:48.522Z,48.07
2022-10-20T21:26:16.064Z,39.97
2022-10-20T21:28:43.331Z,43.27
2022-10-20T21:31:11.435Z,41.17
2022-10-20T21:33:38.759Z,38.97
2022-10-20T21:36:15.252Z,37.67
2022-10-20T21:38:42.474Z,34.97
2022-10-20T21:41:19.421Z,36.70
2022-10-20T21:43:47.465Z,34.47
2022-10-20T21:46:18.224Z,41.47
2022-10-20T21:48:45.565Z,37.80
2022-10-20T21:51:16.730Z,39.23
2022-10-20T21:53:43.895Z,40.70
2022-10-20T21:56:11.150Z,37.67
2022-10-20T21:58:38.397Z,38.00
2022-10-20T22:01:09.351Z,39.57
2022-10-20T22:03:36.567Z,45.17
2022-10-20T22:06:03.945Z,42.97
2022-10-20T22:08:31.159Z,42.70
2022-10-20T22:11:02.313Z,44.10
2022-10-20T22:13:29.446Z,42.27
2022-10-20T22:15:56.614Z,44.97
2022-10-20T22:18:23.792Z,45.33
2022-10-20T22:20:51.127Z,43.47
2022-10-20T22:23:18.346Z,39.73
2022-10-20T22:25:45.513Z,37.20
2022-10-20T22:28:12.651Z,32.27
2022-10-20T22:30:39.791Z,31.47
2022-10-20T22:33:06.957Z,31.50
2022-10-20T22:35:34.125Z,32.70
2022-10-20T22:38:01.267Z,35.73
2022-10-20T22:40:28.440Z,34.17
2022-10-20T22:42:55.574Z,34.57
2022-10-20T22:45:22.706Z,35.27
2022-10-20T22:47:49.903Z,36.17
2022-10-20T22:50:17.104Z,37.57
2022-10-20T22:52:44.287Z,37.17
2022-10-20T22:55:11.450Z,36.67
2022-10-20T22:57:38.624Z,41.33
2022-10-20T23:00:06.154Z,40.63
2022-10-20T23:02:33.473Z,43.07
2022-10-20T23:05:00.625Z,46.97
2022-10-20T23:07:27.759Z,50.53
2022-10-20T23:09:55.022Z,50.57
2022-10-20T23:12:22.171Z,47.63
2022-10-20T23:14:49.363Z,46.10
2022-10-20T23:17:16.522Z,43.70
2022-10-20T23:19:43.909Z,43.00
2022-10-20T23:22:11.145Z,35.77
2022-10-20T23:24:39.357Z,33.43
2022-10-20T23:27:06.486Z,36.40
2022-10-20T23:29:33.669Z,32.20
2022-10-20T23:32:00.836Z,29.00
2022-10-20T23:34:28.128Z,28.30
2022-10-20T23:36:55.331Z,30.03
2022-10-20T23:39:22.569Z,26.00
2022-10-20T23:41:49.703Z,26.03
2022-10-20T23:44:16.860Z,22.77
2022-10-20T23:46:44.049Z,23.33
2022-10-20T23:49:11.186Z,22.80
2022-10-20T23:51:38.366Z,21.63
2022-10-20T23:54:05.552Z,22.30
2022-10-20T23:56:32.699Z,22.37
2022-10-20T23:58:59.896Z,19.93
